createdAt,value
2018-07-04T00:01:16.129Z,19.50
2018-07-04T00:03:55.772Z,19.60
2018-07-04T00:06:35.339Z,19.50
2018-07-04T00:09:14.915Z,19.50
2018-07-04T00:11:54.608Z,19.50
2018-07-04T00:14:34.356Z,19.50
2018-07-04T00:17:14.003Z,19.50
2018-07-04T00:19:53.552Z,19.60
2018-07-04T00:22:33.012Z,19.60
2018-07-04T00:25:12.577Z,19.50
2018-07-04T00:27:52.148Z,19.50
2018-07-04T00:47:34.241Z,19.30
2018-07-04T00:50:13.794Z,19.30
2018-07-04T00:52:53.392Z,19.20
2018-07-04T00:55:33.443Z,19.20
2018-07-04T00:59:24.440Z,19.10
2018-07-04T01:02:04.036Z,19.10
2018-07-04T01:04:43.707Z,19.10
2018-07-04T01:07:23.234Z,19.10
2018-07-04T01:10:02.708Z,19.00
2018-07-04T01:12:42.737Z,19.00
2018-07-04T01:15:23.039Z,19.00
2018-07-04T01:32:16.616Z,18.70
2018-07-04T01:34:56.141Z,18.70
2018-07-04T01:37:35.696Z,18.70
2018-07-04T01:40:15.351Z,18.70
2018-07-04T01:42:54.952Z,18.60
2018-07-04T01:45:34.554Z,18.60
2018-07-04T01:48:13.935Z,18.50
2018-07-04T01:50:53.564Z,18.40
2018-07-04T01:53:33.260Z,18.40
2018-07-04T02:13:15.510Z,18.20
2018-07-04T02:15:55.156Z,18.20
2018-07-04T02:18:34.977Z,18.10
2018-07-04T02:21:14.821Z,18.00
2018-07-04T02:23:54.408Z,18.00
2018-07-04T02:43:36.272Z,17.90
2018-07-04T02:46:49.195Z,17.80
2018-07-04T02:49:28.584Z,17.80
2018-07-04T02:52:08.278Z,17.80
2018-07-04T02:54:47.759Z,17.80
2018-07-04T02:57:27.464Z,17.80
2018-07-04T03:00:06.898Z,17.80
2018-07-04T03:05:51.776Z,17.70
2018-07-04T03:08:31.321Z,17.70
2018-07-04T03:11:11.133Z,17.70
2018-07-04T03:13:52.049Z,17.70
2018-07-04T03:16:31.676Z,17.70
2018-07-04T03:19:11.325Z,17.70
2018-07-04T03:21:51.040Z,17.70
2018-07-04T03:24:30.560Z,17.70
2018-07-04T03:27:10.444Z,17.70
2018-07-04T03:29:56.782Z,17.70
2018-07-04T03:32:36.187Z,17.60
2018-07-04T03:35:15.665Z,17.60
2018-07-04T03:37:55.124Z,17.60
2018-07-04T03:40:34.611Z,17.60
2018-07-04T03:43:14.277Z,17.60
2018-07-04T03:45:53.770Z,17.60
2018-07-04T03:48:33.378Z,17.60
2018-07-04T03:51:12.789Z,17.60
2018-07-04T03:53:52.387Z,17.60
2018-07-04T03:56:31.952Z,17.70
2018-07-04T03:59:11.664Z,17.70
2018-07-04T04:01:51.355Z,17.70
2018-07-04T04:04:30.866Z,17.70
2018-07-04T04:07:10.650Z,17.70
2018-07-04T04:09:50.281Z,17.70
2018-07-04T04:12:29.781Z,17.70
2018-07-04T04:15:10.612Z,17.70
2018-07-04T04:17:50.339Z,17.80
2018-07-04T04:20:29.820Z,17.80
2018-07-04T04:23:09.678Z,17.80
2018-07-04T04:25:49.154Z,17.80
2018-07-04T04:28:28.642Z,17.80
2018-07-04T04:48:11.477Z,18.00
2018-07-04T04:50:51.104Z,18.00
2018-07-04T04:53:30.602Z,18.10
2018-07-04T04:56:10.100Z,18.10
2018-07-04T04:58:49.611Z,18.20
2018-07-04T05:01:29.220Z,18.20
2018-07-04T05:04:08.803Z,18.30
2018-07-04T05:06:48.439Z,18.40
2018-07-04T05:09:27.808Z,18.40
2018-07-04T05:12:07.424Z,18.40
2018-07-04T05:31:49.524Z,18.50
2018-07-04T05:34:29.014Z,18.50
2018-07-04T05:37:08.659Z,18.70
2018-07-04T05:39:48.197Z,18.90
2018-07-04T05:59:30.072Z,19.70
2018-07-04T06:02:09.438Z,19.70
2018-07-04T06:04:49.039Z,19.70
2018-07-04T06:07:28.624Z,19.70
2018-07-04T06:10:08.338Z,19.70
2018-07-04T06:12:48.112Z,19.70
2018-07-04T06:15:27.698Z,19.70
2018-07-04T06:18:07.218Z,19.80
2018-07-04T06:20:46.756Z,19.90
2018-07-04T06:23:28.352Z,20.00
2018-07-04T06:26:08.034Z,20.10
2018-07-04T06:28:47.475Z,20.30
2018-07-04T06:31:27.177Z,20.40
2018-07-04T06:34:10.149Z,20.50
2018-07-04T06:51:05.509Z,21.40
2018-07-04T06:53:32.813Z,21.50
2018-07-04T06:56:00.155Z,21.50
2018-07-04T06:58:27.539Z,21.60
2018-07-04T07:00:55.137Z,21.60
2018-07-04T07:03:34.659Z,21.60
2018-07-04T07:06:14.406Z,21.80
2018-07-04T07:25:58.426Z,22.80
2018-07-04T07:28:42.971Z,22.90
2018-07-04T07:31:23.779Z,23.00
2018-07-04T07:34:03.705Z,23.10
2018-07-04T07:36:43.524Z,23.30
2018-07-04T07:39:24.640Z,23.40
2018-07-04T07:53:28.438Z,24.20
2018-07-04T07:56:11.446Z,24.30
2018-07-04T07:58:50.974Z,24.50
2018-07-04T08:01:31.214Z,24.60
2018-07-04T08:04:12.096Z,24.70
2018-07-04T08:07:03.133Z,24.80
2018-07-04T08:09:42.605Z,25.00
2018-07-04T08:12:22.251Z,25.20
2018-07-04T08:15:01.848Z,25.40
2018-07-04T08:17:41.727Z,25.50
2018-07-04T08:20:21.328Z,25.70
2018-07-04T08:23:00.923Z,25.80
2018-07-04T08:25:40.675Z,26.00
2018-07-04T08:28:20.267Z,26.20
2018-07-04T08:30:59.855Z,26.30
2018-07-04T08:33:40.129Z,26.40
2018-07-04T08:36:19.669Z,26.60
2018-07-04T08:38:59.486Z,26.70
2018-07-04T08:41:39.765Z,26.80
2018-07-04T08:44:19.569Z,26.90
2018-07-04T08:46:59.243Z,26.90
2018-07-04T08:49:39.885Z,27.10
2018-07-04T08:52:19.422Z,27.20
2018-07-04T08:54:59.022Z,27.30
2018-07-04T08:57:38.647Z,27.40
2018-07-04T09:00:18.229Z,27.50
2018-07-04T09:02:57.857Z,27.60
2018-07-04T09:05:37.575Z,27.70
2018-07-04T09:08:17.128Z,27.80
2018-07-04T09:10:56.681Z,27.90
2018-07-04T09:13:37.561Z,28.00
2018-07-04T09:16:17.105Z,28.20
2018-07-04T09:18:57.245Z,28.30
2018-07-04T09:21:38.424Z,28.40
2018-07-04T09:24:20.767Z,28.50
2018-07-04T09:27:16.206Z,28.60
2018-07-04T09:29:56.400Z,28.70
2018-07-04T09:32:40.069Z,28.80
2018-07-04T09:35:22.509Z,28.90
2018-07-04T09:38:02.270Z,28.80
2018-07-04T09:40:41.815Z,28.80
2018-07-04T09:43:21.723Z,28.70
2018-07-04T09:46:01.992Z,28.70
2018-07-04T09:48:41.645Z,28.70
2018-07-04T09:51:21.380Z,28.70
2018-07-04T09:54:02.254Z,28.90
2018-07-04T09:56:41.689Z,29.00
2018-07-04T09:59:21.262Z,29.00
2018-07-04T10:02:00.872Z,29.00
2018-07-04T10:04:40.355Z,28.90
2018-07-04T10:07:19.736Z,28.90
2018-07-04T10:10:02.612Z,29.10
2018-07-04T10:12:42.104Z,29.20
2018-07-04T10:15:21.743Z,29.10
2018-07-04T10:18:01.269Z,29.00
2018-07-04T10:20:40.984Z,29.00
2018-07-04T10:23:20.556Z,29.00
2018-07-04T10:26:00.264Z,29.20
2018-07-04T10:28:39.891Z,29.30
2018-07-04T10:31:19.449Z,29.30
2018-07-04T10:33:58.781Z,29.20
2018-07-04T10:36:38.536Z,29.10
2018-07-04T10:39:18.100Z,29.20
2018-07-04T10:41:57.707Z,29.30
2018-07-04T10:44:37.183Z,29.30
2018-07-04T10:47:16.856Z,29.50
2018-07-04T10:49:56.227Z,29.60
2018-07-04T10:52:35.890Z,29.70
2018-07-04T11:15:16.033Z,30.10
2018-07-04T11:17:55.636Z,30.10
2018-07-04T11:20:35.325Z,30.20
2018-07-04T11:23:14.717Z,30.30
2018-07-04T11:25:54.145Z,30.50
2018-07-04T11:28:33.760Z,30.50
2018-07-04T11:31:13.181Z,30.40
2018-07-04T11:33:52.836Z,30.30
2018-07-04T11:36:32.303Z,30.20
2018-07-04T11:39:11.887Z,30.10
2018-07-04T11:41:51.393Z,30.00
2018-07-04T11:44:31.072Z,30.00
2018-07-04T11:46:58.480Z,29.90
2018-07-04T11:49:25.742Z,29.90
2018-07-04T11:51:53.341Z,29.80
2018-07-04T11:54:20.613Z,29.70
2018-07-04T11:56:47.881Z,29.50
2018-07-04T12:05:08.307Z,29.10
2018-07-04T12:07:35.598Z,29.10
2018-07-04T12:10:02.836Z,29.10
2018-07-04T12:12:30.132Z,29.20
2018-07-04T12:14:57.379Z,29.30
2018-07-04T12:17:24.776Z,29.30
2018-07-04T12:19:52.434Z,29.30
2018-07-04T12:22:19.780Z,29.40
2018-07-04T12:24:47.020Z,29.50
2018-07-04T12:27:14.429Z,29.50
2018-07-04T12:30:20.750Z,29.50
2018-07-04T12:32:55.709Z,29.60
2018-07-04T12:35:24.095Z,29.60
2018-07-04T12:37:51.571Z,29.50
2018-07-04T12:40:18.900Z,29.50
2018-07-04T12:51:17.649Z,29.50
2018-07-04T12:53:45.049Z,29.50
2018-07-04T12:56:24.749Z,29.50
2018-07-04T12:59:04.473Z,29.40
2018-07-04T13:01:47.959Z,29.40
2018-07-04T13:07:23.915Z,29.20
2018-07-04T13:10:03.489Z,29.20
2018-07-04T13:12:43.254Z,29.20
2018-07-04T13:15:22.994Z,29.10
2018-07-04T13:18:02.676Z,29.10
2018-07-04T13:20:44.537Z,29.00
2018-07-04T13:23:28.485Z,28.90
2018-07-04T13:26:07.845Z,28.70
2018-07-04T13:28:47.573Z,28.60
2018-07-04T13:31:27.135Z,28.40
2018-07-04T13:34:07.018Z,28.40
2018-07-04T13:36:46.434Z,28.30
2018-07-04T13:39:26.992Z,28.10
2018-07-04T13:42:06.485Z,28.10
2018-07-04T13:44:46.104Z,28.00
2018-07-04T13:47:26.998Z,28.00
2018-07-04T13:50:06.620Z,28.00
2018-07-04T13:52:46.160Z,27.90
2018-07-04T13:55:25.705Z,27.90
2018-07-04T13:58:05.292Z,27.90
2018-07-04T14:00:44.900Z,27.80
2018-07-04T14:03:24.436Z,27.80
2018-07-04T14:06:11.063Z,27.80
2018-07-04T14:08:50.557Z,27.70
2018-07-04T14:11:30.264Z,27.60
2018-07-04T14:14:10.069Z,27.60
2018-07-04T14:16:50.763Z,27.50
2018-07-04T14:19:30.210Z,27.50
2018-07-04T14:22:09.685Z,27.50
2018-07-04T14:24:49.448Z,27.40
2018-07-04T14:27:28.942Z,27.40
2018-07-04T14:30:08.542Z,27.40
2018-07-04T14:32:48.143Z,27.30
2018-07-04T14:35:28.504Z,27.40
2018-07-04T14:38:15.203Z,27.30
2018-07-04T14:40:54.747Z,27.30
2018-07-04T14:43:34.512Z,27.40
2018-07-04T14:46:13.988Z,27.40
2018-07-04T14:48:53.580Z,27.40
2018-07-04T14:51:33.100Z,27.50
2018-07-04T14:54:12.792Z,27.60
2018-07-04T14:56:52.327Z,27.70
2018-07-04T14:59:31.715Z,27.70
2018-07-04T15:02:11.179Z,27.80
2018-07-04T15:04:50.651Z,27.80
2018-07-04T15:07:30.040Z,27.90
2018-07-04T15:10:09.580Z,28.00
2018-07-04T15:15:39.699Z,28.10
2018-07-04T15:18:19.121Z,28.20
2018-07-04T15:20:58.694Z,28.20
2018-07-04T15:23:38.216Z,28.30
2018-07-04T15:26:17.795Z,28.30
2018-07-04T15:28:57.306Z,28.40
2018-07-04T15:31:36.823Z,28.40
2018-07-04T15:34:16.365Z,28.40
2018-07-04T15:36:55.861Z,28.40
2018-07-04T15:39:35.423Z,28.40
2018-07-04T15:42:14.962Z,28.50
2018-07-04T15:44:54.499Z,28.50
2018-07-04T15:47:42.713Z,28.40
2018-07-04T15:50:22.147Z,28.40
2018-07-04T15:53:01.677Z,28.40
2018-07-04T15:55:41.043Z,28.30
2018-07-04T15:58:20.775Z,28.30
2018-07-04T16:01:00.213Z,28.30
2018-07-04T16:03:39.773Z,28.20
2018-07-04T16:06:19.097Z,28.10
2018-07-04T16:08:58.940Z,28.00
2018-07-04T16:11:38.692Z,28.00
2018-07-04T16:14:18.815Z,27.90
2018-07-04T16:16:58.145Z,27.90
2018-07-04T16:19:37.731Z,27.80
2018-07-04T16:22:17.175Z,27.80
2018-07-04T16:24:56.628Z,27.80
2018-07-04T16:27:36.251Z,27.70
2018-07-04T16:30:15.779Z,27.70
2018-07-04T16:32:55.304Z,27.70
2018-07-04T16:35:34.979Z,27.60
2018-07-04T16:38:14.506Z,27.60
2018-07-04T16:40:54.071Z,27.50
2018-07-04T16:43:33.583Z,27.50
2018-07-04T16:46:12.896Z,27.50
2018-07-04T16:48:52.410Z,27.40
2018-07-04T16:51:31.850Z,27.40
2018-07-04T16:54:12.328Z,27.30
2018-07-04T16:56:51.804Z,27.30
2018-07-04T16:59:31.271Z,27.30
2018-07-04T17:02:10.900Z,27.30
2018-07-04T17:04:50.352Z,27.20
2018-07-04T17:07:29.952Z,27.20
2018-07-04T17:10:09.287Z,27.10
2018-07-04T17:12:49.115Z,27.10
2018-07-04T17:15:28.860Z,27.10
2018-07-04T17:18:08.338Z,27.10
2018-07-04T17:20:47.799Z,27.10
2018-07-04T17:23:27.348Z,27.10
2018-07-04T17:26:06.850Z,27.20
2018-07-04T17:28:46.383Z,27.10
2018-07-04T17:31:25.904Z,27.10
2018-07-04T17:34:05.415Z,27.10
2018-07-04T17:36:45.036Z,27.10
2018-07-04T17:39:24.585Z,27.00
2018-07-04T17:42:04.004Z,27.00
2018-07-04T17:44:43.592Z,26.90
2018-07-04T17:47:23.252Z,26.90
2018-07-04T17:50:02.829Z,26.90
2018-07-04T17:52:42.362Z,26.80
2018-07-04T17:55:22.339Z,26.80
2018-07-04T17:58:01.623Z,26.70
2018-07-04T18:00:41.079Z,26.70
2018-07-04T18:03:20.535Z,26.70
2018-07-04T18:06:00.306Z,26.70
2018-07-04T18:08:39.684Z,26.60
2018-07-04T18:11:19.429Z,26.50
2018-07-04T18:13:58.943Z,26.50
2018-07-04T18:16:43.595Z,26.40
2018-07-04T18:19:27.391Z,26.40
2018-07-04T18:22:06.826Z,26.30
2018-07-04T18:24:46.371Z,26.30
2018-07-04T18:27:26.819Z,26.20
2018-07-04T18:30:06.415Z,26.20
2018-07-04T18:32:46.038Z,26.20
2018-07-04T18:35:25.549Z,26.10
2018-07-04T18:38:04.963Z,26.10
2018-07-04T18:40:44.563Z,26.00
2018-07-04T18:43:24.124Z,26.00
2018-07-04T18:46:03.803Z,25.90
2018-07-04T18:48:43.164Z,25.90
2018-07-04T18:51:22.584Z,25.80
2018-07-04T18:54:02.448Z,25.70
2018-07-04T18:56:41.955Z,25.70
2018-07-04T18:59:21.715Z,25.60
2018-07-04T19:02:01.335Z,25.60
2018-07-04T19:04:40.789Z,25.50
2018-07-04T19:07:20.236Z,25.40
2018-07-04T19:09:59.798Z,25.40
2018-07-04T19:12:39.260Z,25.30
2018-07-04T19:15:18.879Z,25.30
2018-07-04T19:17:58.412Z,25.20
2018-07-04T19:20:43.961Z,25.20
2018-07-04T19:23:34.920Z,25.10
2018-07-04T19:26:14.433Z,25.00
2018-07-04T19:28:54.023Z,25.00
2018-07-04T19:31:33.579Z,24.90
2018-07-04T19:34:12.969Z,24.80
2018-07-04T19:36:52.479Z,24.80
2018-07-04T19:39:34.123Z,24.70
2018-07-04T19:42:13.829Z,24.60
2018-07-04T19:44:53.027Z,24.50
2018-07-04T19:47:32.720Z,24.40
2018-07-04T19:50:12.269Z,24.20
2018-07-04T19:52:51.851Z,24.10
2018-07-04T19:55:39.708Z,24.00
2018-07-04T19:58:19.168Z,24.00
2018-07-04T20:00:58.719Z,24.00
2018-07-04T20:03:38.419Z,23.90
2018-07-04T20:06:17.886Z,23.90
2018-07-04T20:08:57.607Z,23.80
2018-07-04T20:11:36.986Z,23.80
2018-07-04T20:14:16.581Z,23.70
2018-07-04T20:16:56.059Z,23.70
2018-07-04T20:36:38.075Z,23.20
2018-07-04T20:39:17.710Z,23.10
2018-07-04T20:41:57.631Z,23.00
2018-07-04T20:44:37.824Z,23.00
2018-07-04T20:47:17.411Z,22.90
2018-07-04T20:49:56.992Z,22.80
2018-07-04T20:52:36.580Z,22.70
2018-07-04T20:55:16.260Z,22.70
2018-07-04T20:57:55.891Z,22.60
2018-07-04T21:00:37.224Z,22.60
2018-07-04T21:03:16.819Z,22.50
2018-07-04T21:05:56.556Z,22.40
2018-07-04T21:08:36.027Z,22.40
2018-07-04T21:11:17.434Z,22.30
2018-07-04T21:13:58.994Z,22.30
2018-07-04T21:16:38.697Z,22.20
2018-07-04T21:19:18.228Z,22.20
2018-07-04T21:21:57.696Z,22.10
2018-07-04T21:24:37.204Z,22.10
2018-07-04T21:27:17.149Z,22.00
2018-07-04T21:29:56.528Z,22.00
2018-07-04T21:32:36.235Z,21.90
2018-07-04T21:52:18.499Z,21.60
2018-07-04T21:54:58.124Z,21.50
2018-07-04T21:57:37.740Z,21.50
2018-07-04T22:17:19.747Z,21.10
2018-07-04T22:19:59.312Z,21.10
2018-07-04T22:22:38.934Z,21.00
2018-07-04T22:25:18.588Z,21.00
2018-07-04T22:27:58.341Z,20.90
2018-07-04T22:30:37.932Z,20.90
2018-07-04T22:33:17.540Z,20.80
2018-07-04T22:35:56.992Z,20.80
2018-07-04T22:38:36.627Z,20.70
2018-07-04T22:41:16.088Z,20.70
2018-07-04T22:43:55.701Z,20.60
2018-07-04T22:46:35.127Z,20.60
2018-07-04T22:49:15.929Z,20.50
2018-07-04T22:51:55.396Z,20.50
2018-07-04T23:11:37.283Z,20.20
2018-07-04T23:14:17.316Z,20.10
2018-07-04T23:16:56.784Z,20.10
2018-07-04T23:19:36.385Z,20.10
2018-07-04T23:22:16.009Z,20.10
2018-07-04T23:24:55.649Z,20.00
2018-07-04T23:27:35.211Z,20.00
2018-07-04T23:30:14.793Z,20.00
2018-07-04T23:32:54.250Z,19.90
2018-07-04T23:35:33.890Z,19.90
2018-07-04T23:38:13.355Z,19.90
2018-07-04T23:40:52.913Z,19.90
2018-07-04T23:43:32.493Z,19.80
2018-07-04T23:46:12.196Z,19.80
2018-07-04T23:48:51.775Z,19.70
2018-07-04T23:51:31.284Z,19.70
2018-07-04T23:54:10.861Z,19.70
2018-07-04T23:56:50.683Z,19.60
2018-07-04T23:59:30.171Z,19.60
